createdAt,value
2023-04-27T00:02:36.507Z,13.40
2023-04-27T00:05:42.226Z,13.48
2023-04-27T00:08:49.095Z,13.32
2023-04-27T00:11:55.820Z,13.38
2023-04-27T00:15:00.834Z,13.40
2023-04-27T00:18:08.187Z,13.40
2023-04-27T00:21:15.001Z,13.50
2023-04-27T00:24:21.240Z,13.32
2023-04-27T00:27:26.132Z,13.42
2023-04-27T00:30:31.275Z,13.30
2023-04-27T00:33:36.906Z,13.26
2023-04-27T00:36:42.422Z,13.14
2023-04-27T00:39:48.962Z,13.17
2023-04-27T00:42:55.216Z,13.16
2023-04-27T00:46:02.773Z,13.15
2023-04-27T00:49:08.254Z,13.17
2023-04-27T00:52:14.936Z,13.26
2023-04-27T00:55:21.230Z,13.36
2023-04-27T00:58:28.239Z,13.37
2023-04-27T01:01:33.458Z,13.36
2023-04-27T01:04:39.108Z,13.35
2023-04-27T01:07:45.887Z,13.13
2023-04-27T01:10:53.068Z,13.12
2023-04-27T01:13:59.254Z,13.12
2023-04-27T01:17:06.329Z,13.11
2023-04-27T01:20:13.667Z,13.13
2023-04-27T01:23:18.703Z,13.08
2023-04-27T01:26:24.480Z,13.22
2023-04-27T01:29:31.055Z,13.19
2023-04-27T01:32:36.913Z,13.16
2023-04-27T01:35:42.917Z,13.17
2023-04-27T01:38:48.903Z,13.08
2023-04-27T01:41:58.272Z,13.03
2023-04-27T01:45:02.521Z,13.10
2023-04-27T01:48:09.072Z,13.05
2023-04-27T01:51:15.091Z,13.00
2023-04-27T01:54:20.138Z,12.90
2023-04-27T01:57:25.830Z,12.85
2023-04-27T02:00:33.415Z,12.87
2023-04-27T02:03:38.688Z,12.90
2023-04-27T02:06:43.785Z,12.91
2023-04-27T02:09:49.196Z,12.96
2023-04-27T02:12:55.484Z,12.93
2023-04-27T02:16:00.616Z,12.94
2023-04-27T02:19:05.957Z,12.94
2023-04-27T02:22:11.130Z,12.93
2023-04-27T02:25:16.575Z,12.82
2023-04-27T02:28:21.561Z,12.84
2023-04-27T02:31:27.681Z,12.85
2023-04-27T02:34:32.676Z,12.84
2023-04-27T02:37:38.263Z,12.76
2023-04-27T02:40:46.817Z,12.65
2023-04-27T03:10:21.758Z,12.40
2023-04-27T03:13:29.331Z,12.42
2023-04-27T03:16:34.533Z,12.26
2023-04-27T03:19:42.166Z,12.30
2023-04-27T03:22:41.145Z,12.33
2023-04-27T03:25:46.487Z,12.39
2023-04-27T03:28:52.038Z,12.36
2023-04-27T03:32:00.512Z,12.39
2023-04-27T03:35:06.182Z,12.45
2023-04-27T03:38:11.353Z,12.43
2023-04-27T03:41:18.759Z,12.39
2023-04-27T03:44:24.065Z,12.39
2023-04-27T03:47:30.676Z,12.41
2023-04-27T03:50:35.896Z,12.39
2023-04-27T03:53:41.742Z,12.36
2023-04-27T03:56:48.209Z,12.29
2023-04-27T03:59:53.815Z,12.31
2023-04-27T04:03:00.641Z,12.29
2023-04-27T04:06:07.480Z,12.38
2023-04-27T04:09:14.426Z,12.49
2023-04-27T04:12:21.406Z,12.52
2023-04-27T04:15:27.910Z,12.58
2023-04-27T04:18:34.431Z,12.69
2023-04-27T04:21:41.511Z,12.66
2023-04-27T04:24:46.922Z,12.58
2023-04-27T04:27:55.416Z,12.62
2023-04-27T04:31:02.293Z,12.76
2023-04-27T04:34:07.900Z,12.81
2023-04-27T04:37:13.631Z,12.74
2023-04-27T04:40:23.024Z,12.77
2023-04-27T04:43:29.353Z,12.76
2023-04-27T04:46:37.565Z,12.82
2023-04-27T04:49:44.403Z,12.83
2023-04-27T04:52:50.695Z,13.01
2023-04-27T04:55:50.147Z,13.13
2023-04-27T04:58:42.921Z,13.26
2023-04-27T05:01:49.080Z,13.57
2023-04-27T05:04:55.007Z,13.72
2023-04-27T05:07:55.385Z,13.98
2023-04-27T05:11:09.497Z,14.24
2023-04-27T05:14:14.153Z,14.45
2023-04-27T05:17:20.541Z,14.53
2023-04-27T05:20:25.513Z,14.74
2023-04-27T05:23:30.736Z,14.99
2023-04-27T05:26:37.000Z,15.26
2023-04-27T05:29:42.331Z,15.43
2023-04-27T05:32:47.681Z,15.63
2023-04-27T05:35:54.843Z,15.73
2023-04-27T05:39:01.298Z,15.83
2023-04-27T05:42:06.531Z,15.92
2023-04-27T05:45:11.633Z,15.96
2023-04-27T05:48:17.044Z,16.06
2023-04-27T05:51:23.432Z,16.08
2023-04-27T05:54:28.440Z,16.09
2023-04-27T05:57:34.116Z,16.21
2023-04-27T06:00:28.496Z,16.26
2023-04-27T06:03:33.633Z,16.32
2023-04-27T06:06:39.903Z,16.30
2023-04-27T06:09:46.175Z,16.39
2023-04-27T06:12:52.498Z,16.50
2023-04-27T06:15:58.390Z,16.57
2023-04-27T06:19:08.077Z,16.72
2023-04-27T06:22:13.315Z,16.86
2023-04-27T06:25:20.015Z,17.02
2023-04-27T06:28:25.583Z,17.08
2023-04-27T06:31:32.365Z,17.11
2023-04-27T06:34:37.963Z,17.17
2023-04-27T06:37:42.903Z,17.28
2023-04-27T06:40:48.207Z,17.43
2023-04-27T06:43:55.818Z,17.60
2023-04-27T06:47:02.220Z,17.74
2023-04-27T06:50:07.031Z,17.80
2023-04-27T06:53:15.269Z,17.95
2023-04-27T06:56:24.726Z,18.16
2023-04-27T06:59:30.591Z,18.24
2023-04-27T07:02:36.510Z,18.45
2023-04-27T07:05:34.684Z,18.65
2023-04-27T07:08:27.282Z,18.81
2023-04-27T07:11:32.288Z,18.94
2023-04-27T07:14:40.890Z,18.89
2023-04-27T07:17:46.538Z,18.79
2023-04-27T07:20:52.971Z,18.90
2023-04-27T07:23:58.935Z,19.10
2023-04-27T07:27:06.332Z,19.19
2023-04-27T07:30:13.107Z,19.28
2023-04-27T07:33:19.998Z,19.45
2023-04-27T07:36:27.170Z,19.64
2023-04-27T07:39:34.038Z,19.83
2023-04-27T07:42:39.754Z,19.95
2023-04-27T07:45:47.762Z,20.20
2023-04-27T07:48:53.077Z,20.21
2023-04-27T07:51:59.181Z,20.15
2023-04-27T07:55:05.062Z,20.22
2023-04-27T07:58:10.682Z,20.17
2023-04-27T08:01:16.867Z,20.01
2023-04-27T08:04:26.933Z,19.94
2023-04-27T08:07:34.618Z,19.90
2023-04-27T08:10:40.450Z,20.14
2023-04-27T08:13:41.620Z,20.17
2023-04-27T08:16:50.382Z,20.19
2023-04-27T08:19:56.783Z,20.19
2023-04-27T08:23:02.031Z,20.17
2023-04-27T08:26:07.672Z,20.21
2023-04-27T08:29:24.126Z,20.18
2023-04-27T08:32:21.510Z,20.24
2023-04-27T08:35:27.874Z,20.20
2023-04-27T08:38:34.053Z,20.21
2023-04-27T08:41:39.773Z,20.23
2023-04-27T08:44:47.064Z,20.26
2023-04-27T08:47:53.901Z,20.33
2023-04-27T08:50:52.369Z,20.42
2023-04-27T08:53:51.272Z,20.60
2023-04-27T08:56:57.348Z,20.77
2023-04-27T09:00:15.085Z,20.58
2023-04-27T09:03:20.338Z,20.58
2023-04-27T09:06:26.765Z,20.57
2023-04-27T09:09:31.662Z,20.63
2023-04-27T09:12:37.466Z,20.76
2023-04-27T09:15:42.725Z,20.75
2023-04-27T09:18:49.599Z,20.85
2023-04-27T09:21:57.756Z,20.98
2023-04-27T09:25:07.252Z,20.98
2023-04-27T09:28:13.156Z,20.98
2023-04-27T09:31:18.731Z,20.75
2023-04-27T09:34:23.994Z,20.73
2023-04-27T09:37:29.495Z,20.82
2023-04-27T09:40:33.790Z,20.76
2023-04-27T09:43:39.529Z,20.88
2023-04-27T09:46:45.621Z,20.88
2023-04-27T09:49:51.113Z,20.87
2023-04-27T09:52:57.321Z,20.91
2023-04-27T09:56:19.066Z,21.17
2023-04-27T09:59:49.811Z,21.22
2023-04-27T10:03:26.928Z,21.31
2023-04-27T10:07:03.540Z,21.38
2023-04-27T10:10:09.375Z,21.51
2023-04-27T10:13:18.426Z,21.46
2023-04-27T10:16:33.205Z,21.34
2023-04-27T10:19:38.093Z,21.37
2023-04-27T10:23:01.008Z,21.43
2023-04-27T10:26:09.221Z,21.36
2023-04-27T10:29:23.288Z,21.29
2023-04-27T10:32:41.237Z,21.24
2023-04-27T10:35:53.110Z,21.40
2023-04-27T10:39:00.076Z,21.49
2023-04-27T10:42:09.410Z,21.33
2023-04-27T10:45:07.994Z,21.40
2023-04-27T10:47:54.442Z,21.55
2023-04-27T10:50:47.361Z,21.58
2023-04-27T10:53:34.600Z,21.51
2023-04-27T10:56:27.647Z,21.61
2023-04-27T10:59:14.535Z,21.59
2023-04-27T11:02:07.312Z,21.62
2023-04-27T11:04:53.028Z,21.68
2023-04-27T11:07:45.700Z,21.68
2023-04-27T11:10:32.705Z,21.76
2023-04-27T11:13:27.093Z,21.89
2023-04-27T11:16:13.538Z,21.94
2023-04-27T11:19:08.330Z,21.92
2023-04-27T11:22:20.441Z,21.99
2023-04-27T11:25:25.947Z,22.10
2023-04-27T11:28:38.360Z,22.05
2023-04-27T11:31:56.521Z,21.97
2023-04-27T11:35:09.051Z,21.90
2023-04-27T11:38:14.118Z,21.87
2023-04-27T11:41:23.011Z,21.90
2023-04-27T11:44:28.413Z,22.08
2023-04-27T11:47:34.743Z,22.22
2023-04-27T11:50:40.742Z,22.28
2023-04-27T11:53:49.267Z,22.37
2023-04-27T11:57:04.273Z,22.49
2023-04-27T12:00:22.173Z,22.45
2023-04-27T12:03:28.744Z,22.36
2023-04-27T12:06:42.165Z,22.50
2023-04-27T12:09:47.651Z,22.55
2023-04-27T12:12:54.408Z,22.63
2023-04-27T12:16:01.129Z,22.60
2023-04-27T12:19:07.344Z,22.56
2023-04-27T12:22:12.618Z,22.47
2023-04-27T12:25:18.474Z,22.37
2023-04-27T12:28:29.896Z,22.32
2023-04-27T12:31:38.052Z,22.35
2023-04-27T12:34:43.527Z,22.49
2023-04-27T12:37:52.044Z,22.40
2023-04-27T12:40:51.470Z,22.28
2023-04-27T12:43:58.968Z,22.15
2023-04-27T12:47:03.938Z,22.18
2023-04-27T12:50:13.265Z,21.93
2023-04-27T12:53:19.758Z,21.63
2023-04-27T12:56:25.347Z,21.43
2023-04-27T12:59:30.373Z,21.36
2023-04-27T13:02:37.795Z,21.31
2023-04-27T13:05:43.620Z,21.32
2023-04-27T13:08:50.226Z,21.27
2023-04-27T13:11:57.815Z,21.27
2023-04-27T13:15:03.889Z,21.19
2023-04-27T13:18:11.237Z,21.09
2023-04-27T13:21:17.110Z,21.07
2023-04-27T13:24:25.055Z,21.03
2023-04-27T13:27:31.758Z,21.03
2023-04-27T13:30:37.239Z,20.93
2023-04-27T13:33:42.965Z,20.83
2023-04-27T13:36:49.433Z,20.77
2023-04-27T13:39:54.126Z,20.70
2023-04-27T13:42:59.916Z,20.48
2023-04-27T13:46:06.152Z,20.40
2023-04-27T13:49:11.699Z,20.35
2023-04-27T13:52:17.795Z,20.16
2023-04-27T13:55:24.706Z,20.00
2023-04-27T13:58:31.358Z,19.89
2023-04-27T14:01:36.518Z,19.80
2023-04-27T14:04:41.319Z,19.74
2023-04-27T14:07:46.827Z,19.59
2023-04-27T14:10:53.498Z,19.57
2023-04-27T14:13:59.199Z,19.55
2023-04-27T14:17:07.739Z,19.44
2023-04-27T14:20:13.229Z,19.32
2023-04-27T14:23:19.932Z,19.34
2023-04-27T14:26:25.107Z,19.29
2023-04-27T14:29:32.628Z,19.28
2023-04-27T14:32:38.128Z,19.34
2023-04-27T14:35:44.360Z,19.41
2023-04-27T14:38:50.513Z,19.62
2023-04-27T14:41:56.610Z,19.72
2023-04-27T14:45:01.408Z,19.70
2023-04-27T14:48:07.156Z,19.59
2023-04-27T14:51:13.333Z,19.53
2023-04-27T14:54:18.879Z,19.55
2023-04-27T14:57:24.180Z,19.34
2023-04-27T15:00:30.099Z,19.32
2023-04-27T15:03:36.474Z,19.22
2023-04-27T15:06:43.111Z,19.12
2023-04-27T15:09:50.036Z,19.05
2023-04-27T15:12:55.242Z,18.98
2023-04-27T15:16:01.015Z,18.96
2023-04-27T15:19:07.422Z,18.95
2023-04-27T15:22:13.491Z,18.92
2023-04-27T15:25:18.490Z,18.93
2023-04-27T15:28:24.031Z,18.99
2023-04-27T15:31:29.683Z,19.02
2023-04-27T15:34:35.359Z,19.13
2023-04-27T15:37:41.854Z,19.11
2023-04-27T15:40:47.632Z,19.04
2023-04-27T15:43:53.308Z,19.02
2023-04-27T15:46:59.887Z,19.07
2023-04-27T15:50:07.406Z,18.99
2023-04-27T15:53:12.695Z,19.00
2023-04-27T15:56:17.518Z,18.71
2023-04-27T15:59:24.147Z,18.66
2023-04-27T16:02:30.490Z,18.52
2023-04-27T16:05:36.125Z,18.47
2023-04-27T16:08:41.939Z,18.45
2023-04-27T16:11:49.668Z,18.39
2023-04-27T16:14:55.371Z,18.36
2023-04-27T16:18:01.001Z,18.31
2023-04-27T16:21:08.071Z,18.21
2023-04-27T16:24:12.798Z,18.03
2023-04-27T16:27:18.711Z,17.98
2023-04-27T16:30:25.318Z,17.97
2023-04-27T16:33:30.474Z,17.91
2023-04-27T16:36:43.006Z,17.85
2023-04-27T16:39:48.913Z,17.69
2023-04-27T16:42:55.524Z,17.60
2023-04-27T16:46:02.645Z,17.55
2023-04-27T16:49:02.761Z,17.52
2023-04-27T16:52:09.072Z,17.45
2023-04-27T16:55:14.884Z,17.38
2023-04-27T16:58:20.202Z,17.22
2023-04-27T17:01:25.600Z,17.15
2023-04-27T17:04:31.087Z,16.68
2023-04-27T17:07:38.457Z,16.65
2023-04-27T17:10:44.359Z,16.48
2023-04-27T17:13:49.642Z,16.45
2023-04-27T17:16:55.823Z,16.34
2023-04-27T17:20:01.601Z,16.27
2023-04-27T17:23:11.998Z,16.19
2023-04-27T17:26:18.570Z,16.09
2023-04-27T17:29:24.400Z,16.12
2023-04-27T17:32:30.075Z,16.00
2023-04-27T17:35:35.797Z,16.08
2023-04-27T17:38:41.655Z,16.05
2023-04-27T17:41:47.089Z,16.03
2023-04-27T17:44:54.315Z,15.90
2023-04-27T17:48:01.099Z,15.87
2023-04-27T17:51:06.372Z,15.78
2023-04-27T17:54:12.282Z,15.76
2023-04-27T17:57:17.944Z,15.63
2023-04-27T18:00:25.616Z,15.61
2023-04-27T18:03:31.136Z,15.67
2023-04-27T18:06:38.897Z,15.55
2023-04-27T18:09:44.634Z,15.45
2023-04-27T18:12:50.762Z,15.51
2023-04-27T18:15:56.391Z,15.40
2023-04-27T18:19:02.048Z,15.29
2023-04-27T18:22:07.304Z,15.25
2023-04-27T18:25:12.873Z,15.17
2023-04-27T18:28:18.571Z,15.08
2023-04-27T18:31:31.956Z,15.12
2023-04-27T18:34:38.054Z,15.09
2023-04-27T18:37:43.398Z,14.94
2023-04-27T18:40:48.628Z,14.81
2023-04-27T18:43:55.312Z,14.72
2023-04-27T18:47:01.824Z,14.74
2023-04-27T18:50:08.166Z,14.71
2023-04-27T18:53:14.702Z,14.68
2023-04-27T18:56:21.985Z,14.67
2023-04-27T18:59:26.572Z,14.65
2023-04-27T19:02:33.031Z,14.61
2023-04-27T19:05:38.642Z,14.55
2023-04-27T19:08:45.287Z,14.44
2023-04-27T19:12:01.979Z,14.45
2023-04-27T19:14:58.628Z,14.48
2023-04-27T19:18:10.675Z,14.48
2023-04-27T19:21:11.101Z,14.47
2023-04-27T19:24:19.497Z,14.45
2023-04-27T19:27:24.855Z,14.51
2023-04-27T19:30:29.668Z,14.48
2023-04-27T19:33:36.644Z,14.65
2023-04-27T19:36:42.325Z,14.62
2023-04-27T19:39:47.940Z,14.55
2023-04-27T19:42:53.645Z,14.47
2023-04-27T19:45:58.314Z,14.40
2023-04-27T19:49:03.103Z,14.36
2023-04-27T19:52:08.847Z,14.32
2023-04-27T19:55:14.339Z,14.36
2023-04-27T19:58:19.137Z,14.35
2023-04-27T20:01:24.630Z,14.37
2023-04-27T20:04:29.826Z,14.40
2023-04-27T20:07:36.590Z,14.24
2023-04-27T20:10:41.410Z,14.04
2023-04-27T20:13:47.205Z,13.86
2023-04-27T20:16:52.770Z,13.67
2023-04-27T20:19:58.066Z,13.54
2023-04-27T20:23:03.168Z,13.52
2023-04-27T20:26:09.029Z,13.49
2023-04-27T20:29:14.988Z,13.46
2023-04-27T20:32:20.249Z,13.41
2023-04-27T20:35:25.657Z,13.37
2023-04-27T20:38:31.558Z,13.30
2023-04-27T20:41:37.849Z,13.32
2023-04-27T20:44:37.045Z,13.33
2023-04-27T20:47:43.267Z,13.40
2023-04-27T20:50:49.323Z,13.46
2023-04-27T20:53:55.177Z,13.41
2023-04-27T20:57:00.706Z,13.26
2023-04-27T21:00:06.451Z,13.26
2023-04-27T21:03:06.754Z,13.34
2023-04-27T21:06:12.046Z,13.30
2023-04-27T21:09:17.113Z,13.12
2023-04-27T21:12:24.990Z,13.12
2023-04-27T21:15:25.261Z,13.27
2023-04-27T21:18:31.081Z,13.34
2023-04-27T21:21:39.071Z,13.36
2023-04-27T21:24:45.588Z,13.39
2023-04-27T21:27:50.987Z,13.14
2023-04-27T21:30:56.567Z,12.95
2023-04-27T21:34:02.221Z,13.04
2023-04-27T21:37:08.959Z,13.03
2023-04-27T21:40:14.789Z,13.13
2023-04-27T21:43:20.071Z,13.12
2023-04-27T21:46:25.442Z,13.09
2023-04-27T21:49:30.021Z,13.11
2023-04-27T21:52:35.816Z,13.23
2023-04-27T21:55:41.399Z,13.17
2023-04-27T21:58:47.382Z,13.24
2023-04-27T22:01:53.028Z,13.17
2023-04-27T22:04:59.857Z,13.03
2023-04-27T22:08:06.453Z,13.14
2023-04-27T22:11:04.855Z,13.25
2023-04-27T22:14:10.415Z,13.21
2023-04-27T22:17:18.960Z,13.17
2023-04-27T22:20:24.307Z,13.26
2023-04-27T22:23:30.386Z,13.34
2023-04-27T22:26:35.856Z,13.45
2023-04-27T22:29:43.644Z,13.45
2023-04-27T22:32:49.512Z,13.16
2023-04-27T22:35:56.554Z,13.32
2023-04-27T22:39:04.284Z,13.09
2023-04-27T22:42:02.451Z,13.25
2023-04-27T22:45:08.527Z,13.30
2023-04-27T22:48:13.720Z,13.35
2023-04-27T22:51:26.102Z,13.27
2023-04-27T22:54:31.409Z,13.24
2023-04-27T22:57:37.089Z,13.21
2023-04-27T23:00:42.836Z,13.26
2023-04-27T23:03:48.556Z,13.22
2023-04-27T23:06:55.709Z,13.10
2023-04-27T23:10:01.888Z,13.13
2023-04-27T23:13:02.148Z,13.13
2023-04-27T23:16:08.016Z,13.21
2023-04-27T23:19:13.052Z,13.17
2023-04-27T23:22:17.582Z,13.11
2023-04-27T23:25:23.261Z,13.13
2023-04-27T23:28:29.279Z,13.17
2023-04-27T23:31:36.760Z,13.14
2023-04-27T23:34:43.529Z,13.11
2023-04-27T23:37:48.781Z,13.10
2023-04-27T23:40:55.307Z,13.22
2023-04-27T23:44:01.462Z,13.19
2023-04-27T23:47:07.250Z,13.03
2023-04-27T23:50:12.384Z,12.97
2023-04-27T23:53:18.205Z,12.95
2023-04-27T23:56:32.101Z,12.99
2023-04-27T23:59:37.983Z,13.15
